Wishon, California
Current Conditions -  °F | °C
As of 7:53 AM on Thursday 23 Oct 2014 (Local Time) from KFAT Reporting Station
Broken Clouds Broken Clouds  
Wind Chill: 13°   Ceiling: 20000
Heat Index: 13°   Visibility: 10mi
Dew Point:   Wind: 3mph
Humidity: 69%   Direction: 40°NE
Pressure: 30.05"   Gusts: NA
Location:  37.27°N, 119.54°W
Report Text: KFAT 231453Z 04003KT 10SM FEW080 FEW120 BKN200 BKN250 13/07 A3005 RMK AO2 SLP172 MTNS OBSC HZ DSNT N-E-S T01280072 51012
Loading
Personal Weather Stations






























Interactive Weather Map
Tropical Storm Tracking
New forecast layout! Learn more

10-Day Weather Forecast

Advertisements
Track Severe Weather on mobile